Time;durP1;ratioP1;P1;durP2;ratioP2;P2;SDS_P1;SDS_P2;PMS_P1;PMS_P2;Temp;Humidity;BMP_temperature;BMP_pressure;BME280_temperature;BME280_humidity;BME280_pressure;Samples;Min_cycle;Max_cycle;Signal;HPM_P1;HPM_P2
2023/06/27 03:17:46;;;;;;;4.47;2.40;;;;;;;;;;6229482;22;20454;-95
2023/06/27 03:20:20;;;;;;;3.10;2.07;;;;;;;;;;6211139;23;20395;-94
2023/06/27 03:22:46;;;;;;;4.00;2.10;;;;;;;;;;6231160;23;20427;-94
2023/06/27 03:25:14;;;;;;;8.20;2.00;;;;;;;;;;6209278;23;20449;-94
2023/06/27 03:27:40;;;;;;;2.93;1.83;;;;;;;;;;6205526;23;20419;-94
2023/06/27 03:30:15;;;;;;;3.73;2.10;;;;;;;;;;6231802;23;20386;-92
2023/06/27 03:32:41;;;;;;;3.90;2.50;;;;;;;;;;6183280;23;20395;-95
2023/06/27 03:35:09;;;;;;;2.87;1.80;;;;;;;;;;6205915;23;20863;-95
2023/06/27 03:37:35;;;;;;;2.33;1.70;;;;;;;;;;6208656;23;20394;-95
2023/06/27 04:03:47;;;;;;;3.80;1.80;;;;;;;;;;6225243;22;20507;-92
2023/06/27 04:06:13;;;;;;;7.70;2.30;;;;;;;;;;6172165;23;20383;-91
2023/06/27 04:08:39;;;;;;;3.10;1.67;;;;;;;;;;6174969;23;20747;-90
2023/06/27 04:11:05;;;;;;;3.73;2.87;;;;;;;;;;6171454;23;20391;-92
2023/06/27 04:13:31;;;;;;;3.30;1.80;;;;;;;;;;6203340;23;20371;-91
2023/06/27 04:15:57;;;;;;;4.97;2.80;;;;;;;;;;6172485;23;20375;-91
2023/06/27 04:18:23;;;;;;;3.13;1.73;;;;;;;;;;6199712;23;20442;-92
2023/06/27 04:20:52;;;;;;;3.00;1.80;;;;;;;;;;6177461;23;20389;-96
2023/06/27 04:23:19;;;;;;;3.90;1.80;;;;;;;;;;6230909;23;20471;-96
2023/06/27 04:25:45;;;;;;;10.43;2.20;;;;;;;;;;6176993;23;20375;-96
2023/06/27 04:28:11;;;;;;;2.63;1.60;;;;;;;;;;6178971;23;20541;-95
2023/06/27 04:30:37;;;;;;;4.73;1.80;;;;;;;;;;6180935;23;20398;-96
2023/06/27 04:33:03;;;;;;;4.80;1.80;;;;;;;;;;6181504;23;20402;-96
2023/06/27 04:35:29;;;;;;;2.30;1.63;;;;;;;;;;6180396;23;20386;-96
2023/06/27 04:43:13;;;;;;;2.80;1.60;;;;;;;;;;6226117;23;20419;-96
2023/06/27 04:45:39;;;;;;;5.20;2.00;;;;;;;;;;6176139;23;20375;-96
2023/06/27 04:48:05;;;;;;;3.93;1.87;;;;;;;;;;6147940;23;20454;-94
2023/06/27 04:50:31;;;;;;;5.20;1.60;;;;;;;;;;6149650;23;20384;-93
2023/06/27 04:52:57;;;;;;;5.00;1.80;;;;;;;;;;6148384;23;20396;-95
2023/06/27 04:55:24;;;;;;;7.10;1.90;;;;;;;;;;6150599;23;20394;-94
2023/06/27 04:57:51;;;;;;;4.40;1.70;;;;;;;;;;6148254;23;20400;-94
2023/06/27 05:00:17;;;;;;;4.33;1.87;;;;;;;;;;6153077;23;20403;-94
2023/06/27 05:02:43;;;;;;;3.30;1.90;;;;;;;;;;6149042;23;20380;-94
2023/06/27 05:05:09;;;;;;;3.30;1.70;;;;;;;;;;6149266;23;20554;-95
2023/06/27 05:28:29;;;;;;;4.40;1.80;;;;;;;;;;6202070;23;20895;-92
2023/06/27 05:30:57;;;;;;;4.27;2.77;;;;;;;;;;6173891;23;20886;-91
2023/06/27 05:33:23;;;;;;;4.07;2.07;;;;;;;;;;6177612;23;20398;-93
2023/06/27 05:35:49;;;;;;;4.20;2.70;;;;;;;;;;6175948;23;20374;-92
2023/06/27 05:38:17;;;;;;;7.80;2.13;;;;;;;;;;6177741;23;20382;-91
2023/06/27 05:40:44;;;;;;;5.00;1.73;;;;;;;;;;6174563;23;20385;-94
2023/06/27 05:43:10;;;;;;;5.00;2.80;;;;;;;;;;6177199;23;20404;-95
2023/06/27 05:45:36;;;;;;;3.93;2.03;;;;;;;;;;6139816;23;20387;-95
2023/06/27 05:48:02;;;;;;;2.67;1.90;;;;;;;;;;6119251;23;20448;-95
2023/06/27 05:50:28;;;;;;;3.73;2.73;;;;;;;;;;6116859;23;20393;-94
2023/06/27 05:52:54;;;;;;;8.80;2.10;;;;;;;;;;6117762;23;20475;-95
2023/06/27 05:55:24;;;;;;;6.37;2.23;;;;;;;;;;6124012;23;20443;-94
2023/06/27 05:57:50;;;;;;;3.90;2.23;;;;;;;;;;6116042;23;20540;-95
2023/06/27 06:00:16;;;;;;;3.83;2.30;;;;;;;;;;6118060;23;20819;-94
2023/06/27 06:02:43;;;;;;;5.83;2.17;;;;;;;;;;6115526;23;20428;-96
2023/06/27 06:05:10;;;;;;;4.20;2.00;;;;;;;;;;6119138;23;20416;-94
2023/06/27 06:07:38;;;;;;;4.07;2.07;;;;;;;;;;6118889;23;20404;-93
2023/06/27 06:10:04;;;;;;;5.47;1.90;;;;;;;;;;6119020;23;20381;-94
2023/06/27 06:12:30;;;;;;;5.60;1.93;;;;;;;;;;6117526;23;20786;-94
2023/06/27 06:14:56;;;;;;;3.53;2.10;;;;;;;;;;6120103;23;20392;-94
2023/06/27 06:17:22;;;;;;;6.13;2.17;;;;;;;;;;6165725;23;20379;-93
2023/06/27 06:19:49;;;;;;;2.33;1.47;;;;;;;;;;6176403;23;20410;-93
2023/06/27 06:22:15;;;;;;;5.30;2.30;;;;;;;;;;6172286;23;20383;-92
2023/06/27 06:24:41;;;;;;;3.47;2.03;;;;;;;;;;6175518;23;20403;-94
2023/06/27 06:27:08;;;;;;;3.33;2.00;;;;;;;;;;6173718;23;20510;-94
2023/06/27 06:29:33;;;;;;;5.00;2.50;;;;;;;;;;6173716;23;20403;-93
2023/06/27 06:31:59;;;;;;;10.77;2.23;;;;;;;;;;6171771;23;20379;-93
2023/06/27 06:34:26;;;;;;;2.30;1.73;;;;;;;;;;6173761;23;20367;-94
2023/06/27 06:36:52;;;;;;;3.93;1.97;;;;;;;;;;6174491;23;20387;-93
2023/06/27 06:39:23;;;;;;;3.80;2.10;;;;;;;;;;6170877;23;20387;-92
2023/06/27 06:41:52;;;;;;;3.80;1.80;;;;;;;;;;6173059;23;21009;-92
2023/06/27 06:44:19;;;;;;;3.63;1.70;;;;;;;;;;6171661;23;20379;-93
2023/06/27 06:46:47;;;;;;;5.40;1.97;;;;;;;;;;6173793;23;20379;-93
2023/06/27 06:49:13;;;;;;;9.50;1.87;;;;;;;;;;6174662;23;20381;-93
2023/06/27 06:51:39;;;;;;;3.70;2.77;;;;;;;;;;6174752;23;20395;-93
2023/06/27 06:54:05;;;;;;;3.20;2.10;;;;;;;;;;6172434;23;20383;-93
2023/06/27 06:56:31;;;;;;;10.03;3.13;;;;;;;;;;6173965;23;20359;-91
2023/06/27 06:58:59;;;;;;;3.37;1.73;;;;;;;;;;6172606;23;20427;-92
2023/06/27 07:01:28;;;;;;;3.00;2.10;;;;;;;;;;6175358;23;20382;-92
2023/06/27 07:03:54;;;;;;;2.83;2.13;;;;;;;;;;6172636;23;20414;-93
2023/06/27 07:06:21;;;;;;;4.47;2.00;;;;;;;;;;6175043;23;20383;-93
2023/06/27 07:08:52;;;;;;;2.57;1.80;;;;;;;;;;6172737;23;20415;-93
2023/06/27 07:11:18;;;;;;;2.60;1.73;;;;;;;;;;6177947;23;20400;-93
2023/06/27 07:13:44;;;;;;;5.10;1.40;;;;;;;;;;6172631;23;20382;-92
2023/06/27 07:16:10;;;;;;;3.17;1.60;;;;;;;;;;6175016;23;20386;-93
2023/06/27 07:18:37;;;;;;;5.33;2.10;;;;;;;;;;6172702;23;20390;-92
2023/06/27 07:21:03;;;;;;;3.40;1.93;;;;;;;;;;6175571;23;20385;-92
2023/06/27 07:23:29;;;;;;;3.93;1.90;;;;;;;;;;6170363;23;20379;-92
2023/06/27 07:25:55;;;;;;;4.10;1.90;;;;;;;;;;6173193;23;20363;-92
2023/06/27 07:28:21;;;;;;;3.10;1.93;;;;;;;;;;6196600;23;20461;-93
2023/06/27 07:30:51;;;;;;;7.43;2.63;;;;;;;;;;6173661;23;20390;-93
2023/06/27 07:33:17;;;;;;;6.10;2.20;;;;;;;;;;6171535;23;20454;-93
2023/06/27 07:35:43;;;;;;;7.10;2.10;;;;;;;;;;6172385;23;20390;-92
2023/06/27 07:38:09;;;;;;;5.53;2.27;;;;;;;;;;6171594;23;20394;-93
2023/06/27 07:40:41;;;;;;;4.37;2.10;;;;;;;;;;6177057;23;20379;-95
2023/06/27 07:43:07;;;;;;;2.93;2.00;;;;;;;;;;6197901;23;20376;-93
2023/06/27 07:45:33;;;;;;;7.87;2.30;;;;;;;;;;6171989;23;20462;-90
2023/06/27 07:47:59;;;;;;;3.43;1.83;;;;;;;;;;6171542;23;20993;-92
2023/06/27 07:50:25;;;;;;;3.27;2.10;;;;;;;;;;6175113;23;20390;-93
2023/06/27 07:52:51;;;;;;;5.20;2.13;;;;;;;;;;6172230;23;20389;-93
2023/06/27 07:55:17;;;;;;;4.97;1.87;;;;;;;;;;6175234;23;20375;-92
2023/06/27 07:57:43;;;;;;;3.40;1.90;;;;;;;;;;6173779;23;20387;-93
2023/06/27 08:00:10;;;;;;;4.00;2.03;;;;;;;;;;6174902;23;20383;-92
2023/06/27 08:05:47;;;;;;;4.73;2.33;;;;;;;;;;6205818;23;20681;-96
2023/06/27 08:08:16;;;;;;;3.90;2.10;;;;;;;;;;6175072;23;20419;-96
2023/06/27 08:10:48;;;;;;;4.90;2.63;;;;;;;;;;6181616;23;20399;-96
2023/06/27 08:13:17;;;;;;;5.83;2.70;;;;;;;;;;6180991;23;20372;-96
2023/06/27 08:15:49;;;;;;;3.03;2.20;;;;;;;;;;6183246;23;20398;-96
2023/06/27 08:18:15;;;;;;;5.57;2.17;;;;;;;;;;6145197;23;20389;-92
2023/06/27 08:20:41;;;;;;;3.97;2.23;;;;;;;;;;6139192;23;20377;-92
2023/06/27 08:23:07;;;;;;;4.10;2.40;;;;;;;;;;6135016;23;20381;-92
2023/06/27 08:25:33;;;;;;;6.33;2.50;;;;;;;;;;6136456;23;20416;-93
2023/06/27 08:27:59;;;;;;;4.30;2.40;;;;;;;;;;6136288;23;20483;-93
2023/06/27 08:30:27;;;;;;;7.33;3.00;;;;;;;;;;6137234;23;20397;-93
2023/06/27 08:32:54;;;;;;;6.10;2.50;;;;;;;;;;6134098;23;20361;-92
2023/06/27 08:35:20;;;;;;;2.87;2.17;;;;;;;;;;6135509;23;20368;-92
2023/06/27 08:37:46;;;;;;;5.13;2.33;;;;;;;;;;6135818;23;20381;-93
2023/06/27 08:40:21;;;;;;;6.07;2.83;;;;;;;;;;6135132;23;20381;-92
2023/06/27 08:42:47;;;;;;;2.90;2.33;;;;;;;;;;6154495;23;20413;-91
2023/06/27 08:45:13;;;;;;;4.67;2.40;;;;;;;;;;6170851;23;20383;-92
2023/06/27 08:47:40;;;;;;;6.20;2.43;;;;;;;;;;6170851;23;20442;-92
2023/06/27 08:50:06;;;;;;;5.23;2.30;;;;;;;;;;6175180;23;20375;-93
2023/06/27 08:52:36;;;;;;;6.03;2.37;;;;;;;;;;6169753;23;20390;-93
2023/06/27 08:55:01;;;;;;;3.40;2.20;;;;;;;;;;6175803;23;20387;-92
2023/06/27 08:57:30;;;;;;;5.20;2.67;;;;;;;;;;6173222;23;20383;-93
2023/06/27 08:59:56;;;;;;;6.40;3.13;;;;;;;;;;6174393;23;20406;-93
2023/06/27 09:02:23;;;;;;;8.03;2.50;;;;;;;;;;6173162;23;20367;-94
2023/06/27 09:04:49;;;;;;;4.47;3.20;;;;;;;;;;6172052;23;20387;-93
2023/06/27 09:07:15;;;;;;;5.70;2.50;;;;;;;;;;6174153;23;20445;-92
2023/06/27 09:09:41;;;;;;;3.73;2.30;;;;;;;;;;6174600;23;20380;-94
2023/06/27 09:12:07;;;;;;;5.17;2.53;;;;;;;;;;6175144;23;20387;-92
2023/06/27 09:14:33;;;;;;;5.50;2.93;;;;;;;;;;6173606;23;20455;-93
2023/06/27 09:16:59;;;;;;;4.30;2.80;;;;;;;;;;6174104;23;20891;-93
2023/06/27 09:19:27;;;;;;;6.13;2.90;;;;;;;;;;6173902;23;20668;-93
2023/06/27 09:21:53;;;;;;;5.73;2.50;;;;;;;;;;6175784;23;20414;-93
2023/06/27 09:24:23;;;;;;;4.53;2.30;;;;;;;;;;6171234;23;20406;-93
2023/06/27 09:26:49;;;;;;;3.10;2.10;;;;;;;;;;6196648;23;20384;-92
2023/06/27 09:29:15;;;;;;;3.60;2.87;;;;;;;;;;6174522;23;20395;-93
2023/06/27 09:31:41;;;;;;;4.63;2.80;;;;;;;;;;6171940;23;20375;-94
2023/06/27 09:34:08;;;;;;;5.40;2.33;;;;;;;;;;6172013;23;20405;-94
2023/06/27 09:36:35;;;;;;;9.87;2.93;;;;;;;;;;6172166;23;20374;-94
2023/06/27 09:39:02;;;;;;;4.57;2.60;;;;;;;;;;6173641;23;20391;-93
2023/06/27 09:41:39;;;;;;;5.43;2.20;;;;;;;;;;6173817;23;21029;-93
2023/06/27 09:44:05;;;;;;;5.63;2.67;;;;;;;;;;6175471;23;20378;-94
2023/06/27 09:46:31;;;;;;;3.40;2.53;;;;;;;;;;6179440;23;20465;-94
2023/06/27 09:48:57;;;;;;;2.77;1.70;;;;;;;;;;6176279;23;20425;-92
2023/06/27 09:51:26;;;;;;;5.13;2.40;;;;;;;;;;6177757;23;21052;-95
2023/06/27 09:53:55;;;;;;;4.83;2.23;;;;;;;;;;6179388;23;20383;-95
2023/06/27 09:56:29;;;;;;;3.80;2.27;;;;;;;;;;6178956;23;20395;-93
2023/06/27 09:58:55;;;;;;;6.63;2.67;;;;;;;;;;6180742;23;20376;-94
2023/06/27 10:01:26;;;;;;;5.90;2.30;;;;;;;;;;6173932;23;20437;-94
2023/06/27 10:03:52;;;;;;;6.10;2.77;;;;;;;;;;6179348;23;20793;-92
2023/06/27 10:06:18;;;;;;;6.93;2.27;;;;;;;;;;6177127;23;20375;-94
2023/06/27 10:08:44;;;;;;;4.20;2.63;;;;;;;;;;6176269;23;20423;-94
2023/06/27 10:11:10;;;;;;;4.47;2.90;;;;;;;;;;6202002;23;20393;-93
2023/06/27 10:13:37;;;;;;;3.73;2.10;;;;;;;;;;6177380;23;20387;-93
2023/06/27 10:16:06;;;;;;;7.40;2.30;;;;;;;;;;6174775;23;20387;-95
2023/06/27 10:18:32;;;;;;;7.00;2.20;;;;;;;;;;6176105;23;20375;-93
2023/06/27 10:20:58;;;;;;;3.90;2.60;;;;;;;;;;6176945;23;20386;-95
2023/06/27 10:23:25;;;;;;;3.33;2.57;;;;;;;;;;6177357;23;20374;-94
2023/06/27 10:25:51;;;;;;;5.73;2.60;;;;;;;;;;6176252;23;20368;-93
2023/06/27 10:28:17;;;;;;;5.47;2.20;;;;;;;;;;6178702;23;20479;-94
2023/06/27 10:30:48;;;;;;;7.00;2.63;;;;;;;;;;6175488;23;20375;-94
2023/06/27 10:33:22;;;;;;;4.97;2.40;;;;;;;;;;6177547;23;20416;-94
2023/06/27 10:35:50;;;;;;;5.40;2.47;;;;;;;;;;6175736;23;20379;-94
2023/06/27 10:38:16;;;;;;;4.30;2.67;;;;;;;;;;6111859;23;20392;-94
2023/06/27 10:41:14;;;;;;;7.60;2.20;;;;;;;;;;6109852;23;20394;-92
2023/06/27 10:43:46;;;;;;;5.70;2.57;;;;;;;;;;6097251;23;20398;-95
2023/06/27 10:46:29;;;;;;;3.50;2.13;;;;;;;;;;6109725;23;20373;-94
2023/06/27 10:49:00;;;;;;;4.03;3.33;;;;;;;;;;6107500;23;20421;-93
2023/06/27 10:51:42;;;;;;;4.20;2.83;;;;;;;;;;6108497;23;20389;-93
2023/06/27 10:54:11;;;;;;;5.63;2.10;;;;;;;;;;6109025;23;20385;-93
2023/06/27 10:56:40;;;;;;;7.60;2.30;;;;;;;;;;6107263;23;20454;-92
2023/06/27 10:59:09;;;;;;;2.90;2.40;;;;;;;;;;6111959;23;20480;-93
2023/06/27 11:01:35;;;;;;;4.67;2.37;;;;;;;;;;6111679;23;20454;-93
2023/06/27 11:04:15;;;;;;;2.50;2.17;;;;;;;;;;6113177;23;20382;-93
2023/06/27 11:06:41;;;;;;;6.27;2.33;;;;;;;;;;6109247;23;20354;-93
2023/06/27 11:09:42;;;;;;;4.73;2.50;;;;;;;;;;6148880;23;20463;-96
2023/06/27 11:12:17;;;;;;;3.63;2.37;;;;;;;;;;6198689;23;20375;-93
2023/06/27 11:14:48;;;;;;;5.70;2.90;;;;;;;;;;6177340;23;20393;-93
2023/06/27 11:17:15;;;;;;;6.40;2.70;;;;;;;;;;6198980;23;20374;-94
2023/06/27 11:19:42;;;;;;;5.10;2.53;;;;;;;;;;6177804;23;20363;-94
2023/06/27 11:22:08;;;;;;;3.30;2.10;;;;;;;;;;6175083;23;20379;-94
2023/06/27 11:24:35;;;;;;;3.10;2.53;;;;;;;;;;6176137;23;20375;-93
2023/06/27 11:27:02;;;;;;;6.53;2.20;;;;;;;;;;6174178;23;20455;-94
2023/06/27 11:29:28;;;;;;;4.33;2.47;;;;;;;;;;6176632;23;20414;-95
2023/06/27 11:31:54;;;;;;;2.93;2.40;;;;;;;;;;6175346;23;20387;-93
2023/06/27 11:34:20;;;;;;;4.30;2.93;;;;;;;;;;6174032;23;20375;-94
2023/06/27 11:36:46;;;;;;;5.53;2.27;;;;;;;;;;6173644;23;20758;-93
2023/06/27 11:39:12;;;;;;;4.67;2.30;;;;;;;;;;6177510;23;20383;-94
2023/06/27 11:41:39;;;;;;;3.30;2.23;;;;;;;;;;6175112;23;20375;-95
2023/06/27 11:44:09;;;;;;;4.00;2.97;;;;;;;;;;6174551;23;20454;-93
2023/06/27 11:46:35;;;;;;;4.27;2.37;;;;;;;;;;6174051;23;20384;-94
2023/06/27 11:49:13;;;;;;;3.30;2.70;;;;;;;;;;6177209;23;20435;-96
2023/06/27 11:51:39;;;;;;;4.50;3.43;;;;;;;;;;6178198;23;20406;-94
2023/06/27 11:54:06;;;;;;;3.67;2.90;;;;;;;;;;6178324;23;20417;-94
2023/06/27 11:56:32;;;;;;;3.53;2.37;;;;;;;;;;6175511;23;20386;-94
2023/06/27 11:58:59;;;;;;;4.27;2.33;;;;;;;;;;6173594;23;20383;-94
2023/06/27 12:01:27;;;;;;;3.90;2.43;;;;;;;;;;6173862;23;20375;-96
2023/06/27 12:03:53;;;;;;;4.67;2.47;;;;;;;;;;6176447;23;20406;-94
2023/06/27 12:06:26;;;;;;;6.00;2.50;;;;;;;;;;6174266;23;20391;-94
2023/06/27 12:08:53;;;;;;;3.33;2.30;;;;;;;;;;6174880;23;20478;-93
2023/06/27 12:11:20;;;;;;;5.07;2.70;;;;;;;;;;6175476;23;20359;-94
2023/06/27 12:13:46;;;;;;;3.17;1.50;;;;;;;;;;6175917;23;20399;-93
2023/06/27 12:16:25;;;;;;;4.90;2.17;;;;;;;;;;6171736;23;20455;-93
2023/06/27 12:19:24;;;;;;;7.03;2.60;;;;;;;;;;6200870;23;20367;-96
2023/06/27 12:27:10;;;;;;;4.80;2.90;;;;;;;;;;6248010;22;20452;-95
2023/06/27 12:29:36;;;;;;;3.67;2.10;;;;;;;;;;6210411;23;20429;-95
2023/06/27 12:37:17;;;;;;;4.67;2.87;;;;;;;;;;6166449;23;20428;-96
2023/06/27 12:39:43;;;;;;;2.83;2.37;;;;;;;;;;6119066;23;20375;-93
2023/06/27 12:42:09;;;;;;;6.17;2.40;;;;;;;;;;6115203;23;20381;-93
2023/06/27 12:44:35;;;;;;;4.37;2.13;;;;;;;;;;6119967;23;20388;-93
2023/06/27 12:47:01;;;;;;;4.90;2.80;;;;;;;;;;6115727;23;20423;-95
2023/06/27 12:49:27;;;;;;;6.40;2.83;;;;;;;;;;6113549;23;20373;-96
2023/06/27 12:51:53;;;;;;;5.70;3.07;;;;;;;;;;6113716;23;20392;-95
2023/06/27 12:54:19;;;;;;;3.77;2.30;;;;;;;;;;6120225;23;20381;-94
2023/06/27 12:56:45;;;;;;;3.63;2.20;;;;;;;;;;6113141;23;20401;-96
2023/06/27 12:59:12;;;;;;;6.10;2.93;;;;;;;;;;6116544;23;20384;-94
2023/06/27 13:01:54;;;;;;;5.90;3.13;;;;;;;;;;6138967;23;20393;-93
2023/06/27 13:04:21;;;;;;;5.77;2.50;;;;;;;;;;6117825;23;20638;-94
2023/06/27 13:06:50;;;;;;;4.10;2.30;;;;;;;;;;6112205;23;20381;-94
2023/06/27 13:09:16;;;;;;;4.67;2.97;;;;;;;;;;6115378;23;20444;-94
2023/06/27 13:11:42;;;;;;;3.27;2.60;;;;;;;;;;6115296;23;20476;-93
2023/06/27 13:14:08;;;;;;;5.60;2.83;;;;;;;;;;6110022;23;20915;-94
2023/06/27 13:16:34;;;;;;;4.70;2.90;;;;;;;;;;6115605;23;20392;-95
2023/06/27 13:19:07;;;;;;;6.60;2.50;;;;;;;;;;6115884;23;20385;-96
2023/06/27 13:21:33;;;;;;;6.80;2.40;;;;;;;;;;6141980;23;20386;-95
2023/06/27 13:24:00;;;;;;;3.70;2.50;;;;;;;;;;6115490;23;20380;-93
2023/06/27 13:26:26;;;;;;;4.50;2.77;;;;;;;;;;6115809;23;20384;-96
2023/06/27 13:28:52;;;;;;;3.40;2.27;;;;;;;;;;6116199;23;20447;-94
2023/06/27 13:31:18;;;;;;;3.40;2.27;;;;;;;;;;6117713;23;20393;-95
2023/06/27 13:33:44;;;;;;;6.43;2.80;;;;;;;;;;6117955;23;20704;-94
2023/06/27 13:36:10;;;;;;;3.90;2.90;;;;;;;;;;6119206;23;20408;-96
2023/06/27 13:38:36;;;;;;;3.30;2.37;;;;;;;;;;6140181;23;20422;-94
2023/06/27 13:41:03;;;;;;;4.10;3.40;;;;;;;;;;6148073;23;20399;-93
2023/06/27 13:43:29;;;;;;;4.50;2.80;;;;;;;;;;6078274;23;20386;-92
2023/06/27 13:45:55;;;;;;;3.77;2.30;;;;;;;;;;6084065;23;20434;-94
2023/06/27 13:48:22;;;;;;;4.07;2.33;;;;;;;;;;6081829;23;20870;-93
2023/06/27 13:50:49;;;;;;;4.13;2.30;;;;;;;;;;6082581;23;20387;-93
2023/06/27 13:53:15;;;;;;;3.10;2.27;;;;;;;;;;6081343;23;20433;-95
2023/06/27 13:55:41;;;;;;;3.23;2.20;;;;;;;;;;6079705;23;20390;-95
2023/06/27 13:58:07;;;;;;;4.07;2.70;;;;;;;;;;6080750;23;20390;-94
2023/06/27 14:00:33;;;;;;;3.50;2.50;;;;;;;;;;6078247;23;20903;-95
2023/06/27 14:03:00;;;;;;;7.07;2.47;;;;;;;;;;6080350;23;20434;-94
2023/06/27 14:05:26;;;;;;;5.10;2.40;;;;;;;;;;6077678;23;20482;-93
2023/06/27 14:07:52;;;;;;;4.30;2.37;;;;;;;;;;6078705;23;20422;-95
2023/06/27 14:10:18;;;;;;;4.60;2.33;;;;;;;;;;6079017;23;20390;-90
2023/06/27 14:12:46;;;;;;;3.60;2.30;;;;;;;;;;6108586;23;20367;-95
2023/06/27 14:15:14;;;;;;;4.83;2.60;;;;;;;;;;6188034;23;20384;-95
2023/06/27 14:17:42;;;;;;;4.00;2.40;;;;;;;;;;6152774;23;20411;-93
2023/06/27 14:22:44;;;;;;;2.90;2.00;;;;;;;;;;6195134;23;20743;-93
2023/06/27 14:25:11;;;;;;;5.53;2.60;;;;;;;;;;6145252;23;20384;-92
2023/06/27 14:27:37;;;;;;;3.87;2.87;;;;;;;;;;6169938;23;20411;-94
2023/06/27 14:30:04;;;;;;;5.20;2.40;;;;;;;;;;6142689;23;20424;-94
2023/06/27 14:32:30;;;;;;;4.07;2.97;;;;;;;;;;6149278;23;20411;-94
2023/06/27 14:34:56;;;;;;;4.37;2.77;;;;;;;;;;6143292;23;20479;-95
2023/06/27 14:37:22;;;;;;;4.60;2.57;;;;;;;;;;6146533;23;20551;-94
2023/06/27 14:39:49;;;;;;;2.70;2.17;;;;;;;;;;6141350;23;20856;-94
2023/06/27 14:42:17;;;;;;;4.93;3.27;;;;;;;;;;6142282;23;20463;-94
2023/06/27 14:44:43;;;;;;;3.30;2.40;;;;;;;;;;6140299;23;20380;-93
2023/06/27 14:47:09;;;;;;;4.47;2.53;;;;;;;;;;6144343;23;20388;-94
2023/06/27 14:49:35;;;;;;;4.00;2.63;;;;;;;;;;6144080;23;20398;-95
2023/06/27 14:52:01;;;;;;;3.33;2.37;;;;;;;;;;6149534;23;20384;-96
2023/06/27 14:54:27;;;;;;;5.13;2.43;;;;;;;;;;6141571;23;20466;-94
2023/06/27 15:12:30;;;;;;;6.23;2.63;;;;;;;;;;6224800;22;20431;-94
2023/06/27 15:14:58;;;;;;;6.63;2.30;;;;;;;;;;6198767;23;20375;-94
2023/06/27 15:17:25;;;;;;;3.00;2.37;;;;;;;;;;6200886;23;20463;-94
2023/06/27 15:19:53;;;;;;;4.30;2.33;;;;;;;;;;6197959;23;20394;-94
2023/06/27 15:22:22;;;;;;;7.63;2.47;;;;;;;;;;6199041;23;20683;-93
2023/06/27 15:24:52;;;;;;;4.20;2.30;;;;;;;;;;6173891;23;20367;-93
2023/06/27 15:27:18;;;;;;;3.77;2.27;;;;;;;;;;6195411;23;20422;-94
2023/06/27 15:29:44;;;;;;;4.40;2.73;;;;;;;;;;6198565;23;20901;-92
2023/06/27 15:32:11;;;;;;;2.70;2.23;;;;;;;;;;6220932;23;20374;-94
2023/06/27 15:34:38;;;;;;;3.33;2.60;;;;;;;;;;6198176;23;20383;-94
2023/06/27 15:37:04;;;;;;;4.47;2.83;;;;;;;;;;6196392;23;20383;-93
2023/06/27 15:39:30;;;;;;;5.07;2.77;;;;;;;;;;6197843;23;20406;-94
2023/06/27 15:41:56;;;;;;;6.27;3.07;;;;;;;;;;6195779;23;20446;-94
2023/06/27 15:44:22;;;;;;;7.30;2.90;;;;;;;;;;6197469;23;20898;-93
2023/06/27 15:46:48;;;;;;;5.90;2.23;;;;;;;;;;6195875;23;20375;-93
2023/06/27 15:49:15;;;;;;;7.60;2.93;;;;;;;;;;6200265;23;20476;-94
2023/06/27 15:51:42;;;;;;;5.03;2.80;;;;;;;;;;6202394;23;20379;-92
2023/06/27 15:54:11;;;;;;;3.60;2.57;;;;;;;;;;6204454;23;20462;-96
2023/06/27 15:56:39;;;;;;;5.40;2.90;;;;;;;;;;6207178;23;20443;-96
2023/06/27 15:59:05;;;;;;;4.50;2.57;;;;;;;;;;6205327;23;20442;-96
2023/06/27 16:01:33;;;;;;;3.87;2.43;;;;;;;;;;6202691;23;20455;-96
2023/06/27 16:03:59;;;;;;;3.73;2.27;;;;;;;;;;6206327;23;20406;-96
2023/06/27 17:26:55;;;;;;;4.70;2.87;;;;;;;;;;6250359;22;20437;-96
2023/06/27 17:29:26;;;;;;;5.97;2.53;;;;;;;;;;6177592;23;20459;-95
2023/06/27 17:31:52;;;;;;;4.93;2.43;;;;;;;;;;6173559;23;20938;-95
2023/06/27 17:34:18;;;;;;;7.10;2.77;;;;;;;;;;6151141;23;20403;-94
2023/06/27 17:36:44;;;;;;;3.53;2.40;;;;;;;;;;6154461;23;20396;-96
2023/06/27 17:39:10;;;;;;;4.73;3.10;;;;;;;;;;6150470;23;20422;-95
2023/06/27 17:41:37;;;;;;;4.07;2.30;;;;;;;;;;6117030;23;20428;-96
2023/06/27 17:44:03;;;;;;;6.60;2.20;;;;;;;;;;6117449;23;20390;-96
2023/06/27 17:54:20;;;;;;;3.87;2.70;;;;;;;;;;6221068;22;20451;-93
2023/06/27 17:56:47;;;;;;;4.97;2.53;;;;;;;;;;6196620;23;20925;-93
2023/06/27 18:07:46;;;;;;;4.23;2.63;;;;;;;;;;6195955;23;20443;-91
2023/06/27 18:10:23;;;;;;;10.93;2.90;;;;;;;;;;6147350;23;20377;-93
2023/06/27 18:12:49;;;;;;;4.77;2.70;;;;;;;;;;6153491;23;20728;-93
2023/06/27 18:15:15;;;;;;;4.03;2.67;;;;;;;;;;6146038;23;20392;-92
2023/06/27 18:17:42;;;;;;;3.23;2.53;;;;;;;;;;6147839;23;20471;-91
2023/06/27 18:20:08;;;;;;;5.33;2.77;;;;;;;;;;6146313;23;20388;-91
2023/06/27 18:22:43;;;;;;;4.83;2.67;;;;;;;;;;6148532;23;20392;-92
2023/06/27 18:25:10;;;;;;;5.23;2.60;;;;;;;;;;6148586;23;20391;-93
2023/06/27 18:27:36;;;;;;;3.23;2.80;;;;;;;;;;6148193;23;20427;-92
2023/06/27 18:30:02;;;;;;;4.40;2.50;;;;;;;;;;6146943;23;20448;-90
2023/06/27 18:32:28;;;;;;;8.30;2.70;;;;;;;;;;6143732;23;20383;-90
2023/06/27 18:34:54;;;;;;;7.20;2.60;;;;;;;;;;6145794;23;20384;-89
2023/06/27 18:37:20;;;;;;;6.30;2.70;;;;;;;;;;6142686;23;20411;-90
2023/06/27 18:39:46;;;;;;;4.93;2.60;;;;;;;;;;6145040;23;20388;-91
2023/06/27 18:42:12;;;;;;;4.20;2.60;;;;;;;;;;6140059;23;20375;-90
2023/06/27 18:44:38;;;;;;;3.97;2.70;;;;;;;;;;6141481;23;20395;-90
2023/06/27 18:47:04;;;;;;;2.70;2.23;;;;;;;;;;6144662;23;20380;-90
2023/06/27 18:49:31;;;;;;;4.53;2.57;;;;;;;;;;6142535;23;20458;-90
2023/06/27 18:51:58;;;;;;;3.23;2.77;;;;;;;;;;6141434;23;20376;-91
2023/06/27 18:54:25;;;;;;;4.57;2.70;;;;;;;;;;6144910;23;20399;-90
2023/06/27 18:56:51;;;;;;;5.03;2.30;;;;;;;;;;6138952;23;20875;-90
2023/06/27 18:59:17;;;;;;;4.47;2.37;;;;;;;;;;6141711;23;20380;-91
2023/06/27 19:01:43;;;;;;;5.93;3.30;;;;;;;;;;6140676;23;20384;-89
2023/06/27 19:04:11;;;;;;;4.40;3.00;;;;;;;;;;6144061;23;20391;-90
2023/06/27 19:06:37;;;;;;;4.07;2.47;;;;;;;;;;6141415;23;20388;-90
2023/06/27 19:09:03;;;;;;;5.33;2.27;;;;;;;;;;6161115;23;20435;-90
2023/06/27 19:11:30;;;;;;;4.53;2.43;;;;;;;;;;6167958;23;20372;-89
2023/06/27 19:13:59;;;;;;;3.60;2.07;;;;;;;;;;6170220;23;20402;-90
2023/06/27 19:16:25;;;;;;;4.27;2.60;;;;;;;;;;6194287;23;20380;-90
2023/06/27 19:18:51;;;;;;;5.20;2.03;;;;;;;;;;6168647;23;20373;-90
2023/06/27 19:21:17;;;;;;;5.87;2.73;;;;;;;;;;6170469;23;20380;-90
2023/06/27 19:23:43;;;;;;;4.33;2.30;;;;;;;;;;6169408;23;20457;-90
2023/06/27 19:26:10;;;;;;;5.03;2.60;;;;;;;;;;6170239;23;20396;-90
2023/06/27 19:28:36;;;;;;;7.00;3.00;;;;;;;;;;6167926;23;20557;-91
2023/06/27 19:31:02;;;;;;;2.67;1.90;;;;;;;;;;6170215;23;20406;-91
2023/06/27 19:33:30;;;;;;;7.40;2.50;;;;;;;;;;6165839;23;20419;-91
2023/06/27 19:35:58;;;;;;;4.00;2.60;;;;;;;;;;6135398;23;20416;-91
2023/06/27 19:38:25;;;;;;;4.27;3.00;;;;;;;;;;6112207;23;20385;-91
2023/06/27 19:40:52;;;;;;;4.13;2.40;;;;;;;;;;6112385;23;20415;-91
2023/06/27 19:43:18;;;;;;;4.27;2.53;;;;;;;;;;6110311;23;20387;-91
2023/06/27 19:45:44;;;;;;;3.93;2.53;;;;;;;;;;6114749;23;20861;-91
2023/06/27 19:48:10;;;;;;;4.13;2.40;;;;;;;;;;6109303;23;20475;-91
2023/06/27 19:50:36;;;;;;;3.83;2.43;;;;;;;;;;6112119;23;20388;-90
2023/06/27 19:53:03;;;;;;;4.90;2.17;;;;;;;;;;6111047;23;20464;-91
2023/06/27 19:55:29;;;;;;;5.87;3.47;;;;;;;;;;6114443;23;20415;-91
2023/06/27 19:57:57;;;;;;;4.40;2.83;;;;;;;;;;6113362;23;20384;-91
2023/06/27 20:00:24;;;;;;;3.50;2.40;;;;;;;;;;6116565;23;20385;-92
2023/06/27 20:02:50;;;;;;;4.23;2.70;;;;;;;;;;6115029;23;20377;-92
2023/06/27 20:05:16;;;;;;;3.90;2.97;;;;;;;;;;6113812;23;20385;-92
2023/06/27 20:07:42;;;;;;;3.10;2.53;;;;;;;;;;6156260;23;20427;-91
2023/06/27 20:10:12;;;;;;;4.50;2.43;;;;;;;;;;6170428;23;20406;-93
2023/06/27 20:12:40;;;;;;;3.47;2.20;;;;;;;;;;6168343;23;20864;-91
2023/06/27 20:15:10;;;;;;;3.93;2.30;;;;;;;;;;6165814;23;20380;-93
2023/06/27 20:17:36;;;;;;;5.73;2.90;;;;;;;;;;6193350;23;20721;-92
2023/06/27 20:20:06;;;;;;;3.10;2.70;;;;;;;;;;6164075;23;20399;-92
2023/06/27 20:22:32;;;;;;;3.90;2.53;;;;;;;;;;6167331;23;20383;-91
2023/06/27 20:25:00;;;;;;;8.53;2.70;;;;;;;;;;6163879;23;20415;-91
2023/06/27 20:27:28;;;;;;;5.03;2.53;;;;;;;;;;6167107;23;21015;-92
2023/06/27 20:29:55;;;;;;;2.70;2.10;;;;;;;;;;6165969;23;20378;-92
2023/06/27 20:32:21;;;;;;;3.80;2.57;;;;;;;;;;6167428;23;20383;-93
2023/06/27 20:34:47;;;;;;;6.17;2.83;;;;;;;;;;6163940;23;20433;-92
2023/06/27 20:37:13;;;;;;;4.43;2.50;;;;;;;;;;6164984;23;20392;-92
2023/06/27 20:39:41;;;;;;;4.43;2.43;;;;;;;;;;6164142;23;20383;-92
2023/06/27 20:42:07;;;;;;;4.57;2.57;;;;;;;;;;6166180;23;20408;-92
2023/06/27 20:44:45;;;;;;;4.87;2.50;;;;;;;;;;6168833;23;20387;-93
2023/06/27 20:47:24;;;;;;;2.90;1.93;;;;;;;;;;6170418;23;20411;-93
2023/06/27 20:50:02;;;;;;;5.57;2.40;;;;;;;;;;6168396;23;20372;-93
2023/06/27 20:52:28;;;;;;;5.20;2.43;;;;;;;;;;6164818;23;20391;-93
2023/06/27 20:54:55;;;;;;;5.50;2.70;;;;;;;;;;6161496;23;20421;-92
2023/06/27 20:57:21;;;;;;;3.67;2.30;;;;;;;;;;6165505;23;20375;-92
2023/06/27 20:59:47;;;;;;;5.23;2.37;;;;;;;;;;6166964;23;20376;-91